createdAt,value
2023-02-18T00:00:04.218Z,97982.12
2023-02-18T00:01:08.527Z,97981.91
2023-02-18T00:02:06.176Z,97981.51
2023-02-18T00:03:06.277Z,97970.31
2023-02-18T00:04:06.696Z,97978.03
2023-02-18T00:05:07.110Z,97962.58
2023-02-18T00:07:09.178Z,97957.88
2023-02-18T00:08:09.183Z,97954.41
2023-02-18T00:09:11.642Z,97965.11
2023-02-18T00:10:13.210Z,97952.55
2023-02-18T00:11:11.349Z,97954.51
2023-02-18T00:12:10.953Z,97945.44
2023-02-18T00:13:11.571Z,97944.39
2023-02-18T00:14:14.345Z,97946.66
2023-02-18T00:15:12.599Z,97935.23
2023-02-18T00:16:13.389Z,97934.88
2023-02-18T00:17:12.622Z,97936.14
2023-02-18T00:18:12.930Z,97937.98
2023-02-18T00:19:16.614Z,97930.55
2023-02-18T00:20:14.174Z,97931.38
2023-02-18T00:21:14.793Z,97921.08
2023-02-18T00:22:15.114Z,97915.59
2023-02-18T00:23:15.010Z,97914.98
2023-02-18T00:24:17.053Z,97910
2023-02-18T00:25:15.821Z,97909.94
2023-02-18T00:26:17.717Z,97905.92
2023-02-18T00:27:16.575Z,97913.25
2023-02-18T00:28:16.696Z,97901.69
2023-02-18T00:29:17.081Z,97894.83
2023-02-18T00:30:17.764Z,97898.17
2023-02-18T00:31:21.416Z,97892.3
2023-02-18T00:32:18.857Z,97893.39
2023-02-18T00:33:19.166Z,97877.09
2023-02-18T00:34:19.704Z,97889.22
2023-02-18T00:35:19.931Z,97886.42
2023-02-18T00:36:21.748Z,97882.69
2023-02-18T00:37:20.435Z,97879.62
2023-02-18T00:38:20.852Z,97884.69
2023-02-18T00:39:21.259Z,97869.02
2023-02-18T00:40:21.584Z,97877.73
2023-02-18T00:41:24.167Z,97874.62
2023-02-18T00:42:22.201Z,97870.81
2023-02-18T00:43:22.515Z,97872.77
2023-02-18T00:44:22.705Z,97871.27
2023-02-18T00:45:23.018Z,97871.85
2023-02-18T00:46:24.108Z,97860.43
2023-02-18T00:47:23.772Z,97867.77
2023-02-18T00:48:24.192Z,97868.59
2023-02-18T00:49:24.613Z,97864.11
2023-02-18T00:50:24.821Z,97853.5
2023-02-18T00:51:25.840Z,97850.67
2023-02-18T00:52:25.443Z,97858.98
2023-02-18T00:53:25.967Z,97857.37
2023-02-18T00:54:26.291Z,97852.69
2023-02-18T00:55:46.243Z,97841.78
2023-02-18T00:56:28.644Z,97842.95
2023-02-18T00:57:28.952Z,97845.76
2023-02-18T00:58:29.674Z,97832.41
2023-02-18T00:59:29.794Z,97829.98
2023-02-18T01:00:30.000Z,97830.52
2023-02-18T01:01:30.669Z,97829.8
2023-02-18T01:02:30.642Z,97823.33
2023-02-18T01:03:30.945Z,97829.64
2023-02-18T01:04:31.294Z,97826.05
2023-02-18T01:05:31.574Z,97818.91
2023-02-18T01:06:32.104Z,97817.89
2023-02-18T01:07:32.197Z,97802.19
2023-02-18T01:08:32.508Z,97815.11
2023-02-18T01:09:33.044Z,97812.46
2023-02-18T01:10:33.964Z,97816.07
2023-02-18T01:11:33.671Z,97803.41
2023-02-18T01:12:33.885Z,97802.66
2023-02-18T01:13:34.204Z,97799.22
2023-02-18T01:14:34.608Z,97792.98
2023-02-18T01:15:34.705Z,97787.17
2023-02-18T01:16:35.124Z,97792.16
2023-02-18T01:17:35.647Z,97784.8
2023-02-18T01:18:36.263Z,97786.08
2023-02-18T01:19:36.277Z,97784.89
2023-02-18T01:20:38.125Z,97779.62
2023-02-18T01:21:36.694Z,97780.72
2023-02-18T01:22:37.621Z,97778.34
2023-02-18T01:23:39.176Z,97773.94
2023-02-18T01:24:37.860Z,97771.22
2023-02-18T01:25:38.365Z,97770.66
2023-02-18T01:26:38.384Z,97768.3
2023-02-18T01:27:38.580Z,97764.3
2023-02-18T01:28:40.906Z,97765.76
2023-02-18T01:29:39.438Z,97767.44
2023-02-18T01:30:40.233Z,97761.11
2023-02-18T01:31:40.143Z,97759.87
2023-02-18T01:32:40.261Z,97750.43
2023-02-18T01:33:41.178Z,97753.88
2023-02-18T01:34:41.188Z,97746.96
2023-02-18T01:35:41.479Z,97750.73
2023-02-18T01:36:41.724Z,97746.23
2023-02-18T01:37:42.130Z,97738.99
2023-02-18T01:38:42.236Z,97732.54
2023-02-18T01:39:42.755Z,97730.2
2023-02-18T01:41:43.485Z,97722.19
2023-02-18T01:42:43.919Z,97733.61
2023-02-18T01:43:44.153Z,97725.59
2023-02-18T01:44:44.524Z,97716.03
2023-02-18T01:46:45.441Z,97721.03
2023-02-18T01:47:45.154Z,97714
2023-02-18T01:52:56.567Z,97713.64
2023-02-18T01:55:00.773Z,97703.98
2023-02-18T01:58:04.488Z,97704.8
2023-02-18T02:00:12.469Z,97696.11
2023-02-18T02:01:11.301Z,97694.61
2023-02-18T02:02:14.286Z,97694.43
2023-02-18T02:03:11.780Z,97693.59
2023-02-18T02:04:12.826Z,97686.84
2023-02-18T02:05:13.237Z,97686.56
2023-02-18T02:07:16.424Z,97679.62
2023-02-18T02:08:15.377Z,97680.47
2023-02-18T02:09:18.164Z,97675.42
2023-02-18T02:10:16.843Z,97663.35
2023-02-18T02:46:48.586Z,97601.33
2023-02-18T02:53:17.233Z,97589.17
2023-02-18T02:54:17.890Z,97583.68
2023-02-18T02:55:12.352Z,97576.3
2023-02-18T02:56:22.267Z,97580.16
2023-02-18T02:58:18.593Z,97577.09
2023-02-18T03:13:09.997Z,97554.37
2023-02-18T03:25:35.581Z,97535.58
2023-02-18T03:26:37.086Z,97535.58
2023-02-18T03:28:36.208Z,97535.97
2023-02-18T03:29:36.727Z,97530.78
2023-02-18T03:30:42.361Z,97528.23
2023-02-18T03:31:43.612Z,97529.09
2023-02-18T03:32:41.045Z,97523.08
2023-02-18T03:33:48.521Z,97523.7
2023-02-18T03:34:51.908Z,97526.95
2023-02-18T03:35:51.103Z,97527.8
2023-02-18T03:36:49.985Z,97523.55
2023-02-18T03:38:59.318Z,97526.59
2023-02-18T03:39:56.352Z,97524.16
2023-02-18T03:40:54.023Z,97523.88
2023-02-18T03:41:54.327Z,97513.03
2023-02-18T03:42:54.526Z,97517.8
2023-02-18T03:44:00.374Z,97517.16
2023-02-18T03:44:57.716Z,97507.27
2023-02-18T03:45:58.863Z,97510.03
2023-02-18T03:46:58.742Z,97499
2023-02-18T03:47:58.736Z,97502.38
2023-02-18T03:48:59.495Z,97499.88
2023-02-18T03:49:59.595Z,97497.14
2023-02-18T03:50:59.581Z,97500.67
2023-02-18T03:52:00.011Z,97494.99
2023-02-18T03:53:00.742Z,97498.23
2023-02-18T03:54:00.752Z,97496.6
2023-02-18T03:55:01.357Z,97497.79
2023-02-18T03:56:01.468Z,97500.97
2023-02-18T03:57:01.791Z,97496.55
2023-02-18T03:58:01.899Z,97495.88
2023-02-18T03:59:03.026Z,97489.44
2023-02-18T04:00:03.239Z,97485.95
2023-02-18T04:01:03.866Z,97481.19
2023-02-18T04:02:03.447Z,97489.22
2023-02-18T04:03:03.560Z,97487.17
2023-02-18T04:04:04.330Z,97484.91
2023-02-18T04:05:05.225Z,97483.62
2023-02-18T04:06:05.363Z,97479.91
2023-02-18T04:07:04.817Z,97482.2
2023-02-18T04:08:05.750Z,97478.5
2023-02-18T04:09:05.750Z,97479.59
2023-02-18T04:10:07.413Z,97473.98
2023-02-18T04:11:06.172Z,97477.08
2023-02-18T04:12:07.097Z,97474.12
2023-02-18T04:13:07.004Z,97471.11
2023-02-18T04:14:08.052Z,97470.27
2023-02-18T04:15:08.272Z,97474.19
2023-02-18T04:16:08.550Z,97473.61
2023-02-18T04:17:08.262Z,97472.47
2023-02-18T04:18:08.569Z,97468.65
2023-02-18T04:19:08.988Z,97472.02
2023-02-18T04:20:10.035Z,97459.09
2023-02-18T04:21:09.633Z,97463.74
2023-02-18T04:22:10.053Z,97453.88
2023-02-18T04:23:10.449Z,97459.22
2023-02-18T04:24:10.452Z,97461.77
2023-02-18T04:25:11.080Z,97460.23
2023-02-18T04:26:11.543Z,97457.81
2023-02-18T04:27:11.720Z,97461.44
2023-02-18T04:28:14.990Z,97455.32
2023-02-18T04:29:12.532Z,97453.05
2023-02-18T04:30:13.423Z,97452.7
2023-02-18T04:31:13.417Z,97450.27
2023-02-18T04:32:13.383Z,97449.12
2023-02-18T04:33:13.799Z,97447.02
2023-02-18T04:34:14.006Z,97444.1
2023-02-18T04:35:14.942Z,97445.83
2023-02-18T04:36:14.832Z,97442.57
2023-02-18T04:37:14.944Z,97442.49
2023-02-18T04:38:15.277Z,97441.52
2023-02-18T04:39:15.679Z,97445.95
2023-02-18T04:40:16.908Z,97441.27
2023-02-18T04:41:16.310Z,97445.61
2023-02-18T04:42:16.814Z,97441.17
2023-02-18T04:43:16.920Z,97438.6
2023-02-18T04:44:17.451Z,97438.45
2023-02-18T04:45:17.865Z,97437.09
2023-02-18T04:46:18.161Z,97439.2
2023-02-18T04:47:18.490Z,97439.16
2023-02-18T04:48:18.710Z,97439.7
2023-02-18T04:49:18.922Z,97439.48
2023-02-18T04:50:20.259Z,97431.92
2023-02-18T04:51:19.851Z,97433.27
2023-02-18T04:52:20.271Z,97429.97
2023-02-18T04:53:20.809Z,97433.22
2023-02-18T04:54:20.790Z,97435.08
2023-02-18T04:55:21.186Z,97433.2
2023-02-18T04:56:21.279Z,97431.7
2023-02-18T04:57:21.650Z,97426.02
2023-02-18T04:58:22.147Z,97434.98
2023-02-18T04:59:22.259Z,97435.7
2023-02-18T05:00:22.772Z,97436
2023-02-18T05:01:23.040Z,97436.25
2023-02-18T05:02:23.280Z,97428.97
2023-02-18T05:03:23.721Z,97429.3
2023-02-18T05:04:24.017Z,97432.48
2023-02-18T05:05:24.377Z,97420.27
2023-02-18T05:06:24.765Z,97418.44
2023-02-18T05:07:25.165Z,97426.16
2023-02-18T05:08:26.014Z,97425.17
2023-02-18T05:09:25.832Z,97423.48
2023-02-18T05:10:26.136Z,97424.16
2023-02-18T05:11:26.437Z,97421.86
2023-02-18T05:12:26.645Z,97423.98
2023-02-18T05:13:27.171Z,97417.27
2023-02-18T05:14:27.285Z,97423.8
2023-02-18T05:15:28.171Z,97419.49
2023-02-18T05:16:28.127Z,97414.75
2023-02-18T05:17:28.314Z,97416.73
2023-02-18T05:18:28.850Z,97414.55
2023-02-18T05:19:29.046Z,97411.2
2023-02-18T05:20:29.670Z,97416.08
2023-02-18T05:21:29.675Z,97414.81
2023-02-18T05:22:30.097Z,97414.75
2023-02-18T05:23:30.320Z,97410.86
2023-02-18T05:24:30.835Z,97402.87
2023-02-18T05:25:31.241Z,97403.83
2023-02-18T05:26:31.356Z,97408.96
2023-02-18T05:27:32.287Z,97401.12
2023-02-18T05:28:32.401Z,97405.43
2023-02-18T05:29:32.298Z,97402.53
2023-02-18T05:30:33.000Z,97399.89
2023-02-18T05:31:33.691Z,97404.25
2023-02-18T05:32:33.565Z,97403.44
2023-02-18T05:33:33.861Z,97399.5
2023-02-18T05:34:34.180Z,97394.02
2023-02-18T05:35:34.481Z,97399.61
2023-02-18T05:36:35.049Z,97395.81
2023-02-18T05:37:35.322Z,97396.7
2023-02-18T05:38:35.344Z,97396.94
2023-02-18T05:39:35.755Z,97396.27
2023-02-18T05:40:36.257Z,97395.32
2023-02-18T05:41:36.572Z,97395.78
2023-02-18T05:42:36.880Z,97396.47
2023-02-18T05:43:36.888Z,97390.38
2023-02-18T05:44:37.617Z,97400.02
2023-02-18T05:45:37.929Z,97393.12
2023-02-18T05:46:38.164Z,97395.53
2023-02-18T05:47:38.442Z,97396.61
2023-02-18T05:48:38.877Z,97395.6
2023-02-18T05:49:41.037Z,97395.86
2023-02-18T05:50:39.610Z,97396.2
2023-02-18T05:51:39.911Z,97395.45
2023-02-18T05:52:40.031Z,97393.24
2023-02-18T05:53:41.082Z,97388.98
2023-02-18T05:54:40.856Z,97391.47
2023-02-18T05:55:41.280Z,97385.45
2023-02-18T05:56:41.787Z,97383.58
2023-02-18T05:57:42.019Z,97384.71
2023-02-18T05:58:42.225Z,97386.91
2023-02-18T05:59:42.662Z,97387.03
2023-02-18T06:00:42.847Z,97387.2
2023-02-18T06:01:43.267Z,97383.17
2023-02-18T06:02:43.957Z,97389.43
2023-02-18T06:03:43.784Z,97390.38
2023-02-18T06:04:44.002Z,97385.16
2023-02-18T06:05:44.642Z,97385.39
2023-02-18T06:06:44.928Z,97383.8
2023-02-18T06:07:45.158Z,97386.03
2023-02-18T06:08:45.579Z,97384.91
2023-02-18T06:09:46.286Z,97381.52
2023-02-18T06:10:46.802Z,97385.59
2023-02-18T06:11:46.498Z,97382.36
2023-02-18T06:12:46.788Z,97384.59
2023-02-18T06:13:47.124Z,97383.77
2023-02-18T06:14:47.756Z,97381.95
2023-02-18T06:15:51.434Z,97380.21
2023-02-18T06:16:48.782Z,97377.23
2023-02-18T06:17:49.097Z,97372.42
2023-02-18T06:18:49.520Z,97369.91
2023-02-18T06:19:49.970Z,97372.4
2023-02-18T06:20:50.244Z,97374.8
2023-02-18T06:21:50.549Z,97371
2023-02-18T06:22:50.901Z,97365.7
2023-02-18T06:23:51.494Z,97365.6
2023-02-18T06:24:51.615Z,97364.23
2023-02-18T06:25:51.912Z,97361.83
2023-02-18T06:26:52.538Z,97367.42
2023-02-18T06:27:52.536Z,97370.89
2023-02-18T06:28:52.853Z,97370.55
2023-02-18T06:29:53.155Z,97371.22
2023-02-18T06:30:53.581Z,97365.59
2023-02-18T06:31:54.016Z,97366.78
2023-02-18T06:32:54.315Z,97364.81
2023-02-18T06:33:54.512Z,97369.75
2023-02-18T06:34:54.943Z,97362.03
2023-02-18T06:36:03.745Z,97370.35
2023-02-18T06:36:56.192Z,97369.16
2023-02-18T06:37:56.392Z,97369.12
2023-02-18T06:38:57.014Z,97373.45
2023-02-18T06:39:57.424Z,97369.23
2023-02-18T06:40:57.432Z,97365.34
2023-02-18T06:41:58.456Z,97372.36
2023-02-18T06:42:58.173Z,97361.22
2023-02-18T06:43:58.266Z,97369.59
2023-02-18T06:44:58.890Z,97366.61
2023-02-18T06:45:59.030Z,97367.32
2023-02-18T06:47:00.550Z,97366.69
2023-02-18T06:47:59.602Z,97366.14
2023-02-18T06:49:00.051Z,97369.13
2023-02-18T06:50:00.673Z,97367.85
2023-02-18T06:51:00.872Z,97366.52
2023-02-18T06:52:01.101Z,97364.03
2023-02-18T06:53:01.281Z,97369.06
2023-02-18T06:54:02.032Z,97370.87
2023-02-18T06:55:02.060Z,97369.04
2023-02-18T06:56:02.451Z,97366.89
2023-02-18T06:57:02.964Z,97369.36
2023-02-18T06:58:03.279Z,97370.84
2023-02-18T06:59:03.404Z,97369.62
2023-02-18T07:00:05.571Z,97366.91
2023-02-18T07:01:04.651Z,97365.3
2023-02-18T07:02:04.728Z,97368.69
2023-02-18T07:03:05.250Z,97368.79
2023-02-18T07:04:05.538Z,97366.64
2023-02-18T07:05:06.198Z,97358.98
2023-02-18T07:06:06.733Z,97362.67
2023-02-18T07:07:06.413Z,97359.21
2023-02-18T07:08:06.430Z,97361.77
2023-02-18T07:09:06.830Z,97360.17
2023-02-18T07:10:08.369Z,97363.77
2023-02-18T07:11:07.769Z,97363.79
2023-02-18T07:12:08.150Z,97363.31
2023-02-18T07:13:08.203Z,97360.02
2023-02-18T07:14:08.508Z,97364.53
2023-02-18T07:15:09.440Z,97364.24
2023-02-18T07:16:09.534Z,97361.91
2023-02-18T07:17:09.649Z,97356.16
2023-02-18T07:18:09.870Z,97359.12
2023-02-18T07:19:10.282Z,97357.02
2023-02-18T07:20:10.679Z,97356.03
2023-02-18T07:21:10.823Z,97363.8
2023-02-18T07:22:11.745Z,97355.97
2023-02-18T07:23:11.738Z,97353.6
2023-02-18T07:24:11.854Z,97357.8
2023-02-18T07:25:12.468Z,97353.15
2023-02-18T07:26:14.830Z,97351.93
2023-02-18T07:27:13.090Z,97358.27
2023-02-18T07:28:13.614Z,97355.47
2023-02-18T07:29:13.519Z,97356.59
2023-02-18T07:30:14.977Z,97357.88
2023-02-18T07:31:14.465Z,97356.47
2023-02-18T07:32:16.359Z,97353.87
2023-02-18T07:33:14.872Z,97355.31
2023-02-18T07:34:15.502Z,97351.55
2023-02-18T07:35:17.347Z,97350.5
2023-02-18T07:36:15.933Z,97352.53
2023-02-18T07:37:16.364Z,97348.86
2023-02-18T07:38:16.864Z,97350.11
2023-02-18T07:39:16.961Z,97351.32
2023-02-18T07:40:20.149Z,97349.72
2023-02-18T07:41:20.060Z,97345.42
2023-02-18T07:42:18.379Z,97351.22
2023-02-18T07:43:18.533Z,97352.7
2023-02-18T07:44:18.625Z,97349.44
2023-02-18T07:45:19.250Z,97351.76
2023-02-18T07:46:19.467Z,97347.1
2023-02-18T07:47:19.903Z,97348.31
2023-02-18T07:48:20.292Z,97346.94
2023-02-18T07:49:20.516Z,97345.7
2023-02-18T07:50:21.026Z,97346.52
2023-02-18T07:51:21.045Z,97345.11
2023-02-18T07:52:21.550Z,97346.88
2023-02-18T07:53:21.868Z,97344.7
2023-02-18T07:54:22.595Z,97348.58
2023-02-18T07:55:22.500Z,97349.37
2023-02-18T07:56:22.910Z,97347.5
2023-02-18T07:57:23.236Z,97342.09
2023-02-18T07:58:26.916Z,97339.94
2023-02-18T07:59:24.271Z,97338.59
2023-02-18T08:00:24.578Z,97338.65
2023-02-18T08:01:24.992Z,97337.97
2023-02-18T08:02:25.622Z,97341.01
2023-02-18T08:03:29.204Z,97337.27
2023-02-18T08:04:26.557Z,97338.19
2023-02-18T08:05:26.858Z,97339.5
2023-02-18T08:06:35.062Z,97339.08
2023-02-18T08:07:27.392Z,97339.08
2023-02-18T08:08:29.246Z,97333.34
2023-02-18T08:09:28.122Z,97337.34
2023-02-18T08:10:28.650Z,97336.91
2023-02-18T08:11:28.648Z,97341.56
2023-02-18T08:12:29.167Z,97339.08
2023-02-18T08:13:30.623Z,97336.12
2023-02-18T08:14:29.807Z,97333.22
2023-02-18T08:15:29.993Z,97332.72
2023-02-18T08:16:30.658Z,97337.7
2023-02-18T08:17:30.957Z,97340.84
2023-02-18T08:18:31.156Z,97337.67
2023-02-18T08:19:31.365Z,97337.6
2023-02-18T08:20:31.883Z,97337.54
2023-02-18T08:21:32.540Z,97332.33
2023-02-18T08:22:32.517Z,97333.91
2023-02-18T08:23:32.925Z,97331.51
2023-02-18T08:24:33.134Z,97330.06
2023-02-18T08:25:34.276Z,97331.41
2023-02-18T08:26:34.079Z,97326.88
2023-02-18T08:27:34.400Z,97331.27
2023-02-18T08:28:34.609Z,97327.14
2023-02-18T08:29:35.118Z,97327.51
2023-02-18T08:30:35.454Z,97327.97
2023-02-18T08:31:35.828Z,97328.85
2023-02-18T08:32:36.679Z,97326.33
2023-02-18T08:33:36.287Z,97326.66
2023-02-18T08:34:36.591Z,97330.2
2023-02-18T08:35:37.106Z,97328.81
2023-02-18T08:36:37.527Z,97329.04
2023-02-18T08:37:52.743Z,97325.23
2023-02-18T08:38:41.532Z,97324.61
2023-02-18T08:39:42.158Z,97328.06
2023-02-18T08:40:42.565Z,97330.48
2023-02-18T08:41:42.568Z,97323.9
2023-02-18T08:42:43.801Z,97326.36
2023-02-18T08:43:43.362Z,97327.73
2023-02-18T08:44:44.017Z,97325.39
2023-02-18T08:45:44.836Z,97326.23
2023-02-18T08:46:44.507Z,97323.03
2023-02-18T08:48:16.913Z,97325.6
2023-02-18T08:48:47.035Z,97326.96
2023-02-18T08:49:47.335Z,97321.23
2023-02-18T08:50:48.278Z,97323.83
2023-02-18T08:51:48.271Z,97324.51
2023-02-18T08:52:48.376Z,97322.7
2023-02-18T08:53:49.506Z,97323.86
2023-02-18T08:54:49.716Z,97325.15
2023-02-18T08:55:49.541Z,97326.92
2023-02-18T08:56:49.632Z,97323.55
2023-02-18T08:57:50.163Z,97327.34
2023-02-18T08:58:50.567Z,97329.77
2023-02-18T08:59:50.883Z,97325.47
2023-02-18T09:00:51.098Z,97327.83
2023-02-18T09:01:51.518Z,97324.66
2023-02-18T09:02:51.818Z,97326.13
2023-02-18T09:03:52.117Z,97321.26
2023-02-18T09:04:52.563Z,97321.36
2023-02-18T09:05:52.967Z,97321.97
2023-02-18T09:06:53.383Z,97321.19
2023-02-18T09:07:53.491Z,97321.65
2023-02-18T09:08:53.801Z,97317.75
2023-02-18T09:09:54.325Z,97318.33
2023-02-18T09:11:56.596Z,97311.78
2023-02-18T09:12:57.000Z,97318.62
2023-02-18T09:13:57.422Z,97318.98
2023-02-18T09:14:57.845Z,97317.82
2023-02-18T09:17:02.583Z,97320.74
2023-02-18T09:18:02.770Z,97314.31
2023-02-18T09:19:03.093Z,97316.77
2023-02-18T09:20:05.981Z,97316.05
2023-02-18T09:21:06.360Z,97317.42
2023-02-18T09:22:04.334Z,97317.12
2023-02-18T09:23:04.548Z,97313.91
2023-02-18T09:24:05.483Z,97316.33
2023-02-18T09:25:05.663Z,97318.58
2023-02-18T09:27:10.259Z,97312.85
2023-02-18T09:28:08.576Z,97310.78
2023-02-18T09:29:10.215Z,97312.34
2023-02-18T09:30:09.958Z,97315.19
2023-02-18T09:31:13.321Z,97315.79
2023-02-18T09:32:10.958Z,97314.27
2023-02-18T09:33:11.364Z,97313.2
2023-02-18T09:34:11.580Z,97314.91
2023-02-18T09:35:11.995Z,97311.12
2023-02-18T09:36:12.828Z,97314.89
2023-02-18T09:37:12.747Z,97310.44
2023-02-18T09:38:16.969Z,97315.64
2023-02-18T09:39:14.279Z,97314.31
2023-02-18T09:42:27.929Z,97306.12
2023-02-18T09:43:35.930Z,97305.79
2023-02-18T09:45:33.528Z,97306.69
2023-02-18T09:47:40.248Z,97308.11
2023-02-18T09:48:38.196Z,97303.72
2023-02-18T09:49:41.681Z,97305.48
2023-02-18T09:50:39.013Z,97304.37
2023-02-18T09:51:39.305Z,97305.89
2023-02-18T09:52:40.161Z,97304.97
2023-02-18T09:53:42.848Z,97305.72
2023-02-18T09:54:41.098Z,97302.12
2023-02-18T09:55:41.832Z,97301.14
2023-02-18T09:56:45.927Z,97298.58
2023-02-18T09:58:47.786Z,97299.2
2023-02-18T09:59:47.312Z,97301.61
2023-02-18T10:00:49.619Z,97297.61
2023-02-18T10:01:49.644Z,97297.23
2023-02-18T10:03:47.831Z,97295.31
2023-02-18T10:04:48.964Z,97294.16
2023-02-18T10:06:54.821Z,97297.33
2023-02-18T10:07:56.036Z,97298.47
2023-02-18T10:08:55.519Z,97301.67
2023-02-18T10:09:56.784Z,97301.27
2023-02-18T10:10:54.417Z,97296.97
2023-02-18T10:11:58.526Z,97296.07
2023-02-18T10:12:57.301Z,97294.64
2023-02-18T10:13:57.072Z,97294.36
2023-02-18T10:14:59.380Z,97296.49
2023-02-18T10:15:57.258Z,97296.22
2023-02-18T10:16:59.505Z,97297.73
2023-02-18T10:17:59.333Z,97300.52
2023-02-18T10:19:01.220Z,97296.5
2023-02-18T10:20:01.454Z,97296.37
2023-02-18T10:21:07.397Z,97290.14
2023-02-18T10:22:07.560Z,97292.23
2023-02-18T10:23:05.760Z,97296.44
2023-02-18T10:26:17.144Z,97294.73
2023-02-18T10:28:22.076Z,97292.56
2023-02-18T10:29:22.029Z,97292.7
2023-02-18T10:35:44.138Z,97292.86
2023-02-18T10:52:19.480Z,97279.7
2023-02-18T10:54:26.442Z,97284.22
2023-02-18T10:56:39.409Z,97287.62
2023-02-18T10:57:27.276Z,97288.7
2023-02-18T11:01:33.377Z,97283.37
2023-02-18T11:02:33.893Z,97286.97
2023-02-18T11:04:39.818Z,97285.2
2023-02-18T11:05:39.319Z,97284.39
2023-02-18T11:06:42.084Z,97284.89
2023-02-18T11:07:40.136Z,97282.09
2023-02-18T11:08:44.144Z,97284.68
2023-02-18T11:10:46.929Z,97288.55
2023-02-18T11:11:50.706Z,97282.34
2023-02-18T11:12:53.091Z,97279.2
2023-02-18T11:14:00.082Z,97281.59
2023-02-18T11:16:00.814Z,97280.86
2023-02-18T11:19:04.404Z,97278.39
2023-02-18T11:23:19.572Z,97278.38
2023-02-18T11:24:17.732Z,97280.97
2023-02-18T11:29:32.208Z,97275.33
2023-02-18T11:30:39.536Z,97274.95
2023-02-18T11:31:41.599Z,97272.61
2023-02-18T11:32:36.244Z,97272.55
2023-02-18T11:33:44.717Z,97273.05
2023-02-18T11:34:37.042Z,97272.53
2023-02-18T11:35:38.083Z,97273.59
2023-02-18T11:36:37.735Z,97268.17
2023-02-18T11:37:38.906Z,97271.42
2023-02-18T11:38:49.561Z,97271.47
2023-02-18T11:39:48.219Z,97274.38
2023-02-18T11:40:55.522Z,97270.86
2023-02-18T11:42:48.357Z,97273.68
2023-02-18T11:47:03.444Z,97272.7
2023-02-18T11:51:04.816Z,97271.52
2023-02-18T11:55:26.951Z,97267.99
2023-02-18T11:56:18.668Z,97269.05
2023-02-18T11:57:20.620Z,97273.12
2023-02-18T11:58:18.158Z,97273.05
2023-02-18T11:59:18.380Z,97272.27
2023-02-18T12:02:38.071Z,97269.61
2023-02-18T12:05:37.872Z,97272.38
2023-02-18T12:13:59.033Z,97273.91
2023-02-18T12:15:00.385Z,97269.86
2023-02-18T12:29:43.465Z,97267.74
2023-02-18T13:15:54.144Z,97272
2023-02-18T13:16:51.473Z,97274.17
2023-02-18T13:17:51.481Z,97272.45
2023-02-18T13:22:56.405Z,97281.78
2023-02-18T13:24:59.603Z,97279.44
2023-02-18T13:26:03.284Z,97284.39
2023-02-18T13:39:35.833Z,97285.97
2023-02-18T13:40:36.867Z,97288.48
2023-02-18T13:42:38.530Z,97291.67
2023-02-18T13:43:39.129Z,97288.14
2023-02-18T13:45:41.704Z,97289.4
2023-02-18T13:47:44.907Z,97291.22
2023-02-18T13:49:47.053Z,97292.45
2023-02-18T13:50:47.374Z,97290.72
2023-02-18T13:51:50.874Z,97290.17
2023-02-18T13:52:50.145Z,97291.33
2023-02-18T13:53:51.989Z,97291.21
2023-02-18T13:54:51.528Z,97293.7
2023-02-18T13:58:01.139Z,97298
2023-02-18T14:05:22.279Z,97302.58
2023-02-18T14:06:21.253Z,97312.05
2023-02-18T14:10:34.711Z,97310.2
2023-02-18T14:12:43.008Z,97313.37
2023-02-18T14:14:41.177Z,97316.23
2023-02-18T14:21:05.877Z,97323.28
2023-02-18T14:23:00.276Z,97322.12
2023-02-18T14:24:06.071Z,97323.59
2023-02-18T14:27:16.790Z,97324.08
2023-02-18T14:30:29.561Z,97331.29
2023-02-18T14:32:22.279Z,97332.66
2023-02-18T14:33:22.460Z,97335.44
2023-02-18T14:36:42.961Z,97335.25
2023-02-18T14:50:20.225Z,97335.31
2023-02-18T14:51:23.313Z,97336.55
2023-02-18T14:53:25.053Z,97336.84
2023-02-18T14:54:25.471Z,97339.7
2023-02-18T14:55:30.095Z,97340.48
2023-02-18T14:56:28.563Z,97337.7
2023-02-18T14:57:37.163Z,97342.45
2023-02-18T15:01:37.060Z,97338.23
2023-02-18T15:02:38.931Z,97341.97
2023-02-18T15:03:40.686Z,97346.88
2023-02-18T15:04:38.044Z,97342.62
2023-02-18T15:05:39.271Z,97339.67
2023-02-18T15:06:38.669Z,97341.54
2023-02-18T15:07:39.272Z,97341.61
2023-02-18T15:08:39.496Z,97342.78
2023-02-18T15:12:49.328Z,97347.73
2023-02-18T15:13:50.592Z,97346.78
2023-02-18T15:14:53.368Z,97343.93
2023-02-18T15:16:53.993Z,97347.64
2023-02-18T15:17:53.486Z,97344.91
2023-02-18T15:21:01.792Z,97347.99
2023-02-18T15:21:59.023Z,97350.91
2023-02-18T15:23:00.161Z,97343.87
2023-02-18T15:25:04.876Z,97344.72
2023-02-18T15:26:06.744Z,97343.38
2023-02-18T15:29:19.775Z,97346.16
2023-02-18T15:31:17.874Z,97351.56
2023-02-18T15:32:25.004Z,97343.17
2023-02-18T15:33:22.748Z,97344.75
2023-02-18T15:35:31.272Z,97346.66
2023-02-18T15:36:28.809Z,97346.45
2023-02-18T15:37:30.680Z,97349.96
2023-02-18T15:38:29.947Z,97354.22
2023-02-18T15:39:30.677Z,97351.3
2023-02-18T15:40:37.148Z,97353.27
2023-02-18T15:41:34.687Z,97358.8
2023-02-18T15:42:37.569Z,97353.86
2023-02-18T15:43:35.411Z,97354.88
2023-02-18T15:44:36.947Z,97354.19
2023-02-18T15:45:45.602Z,97357.33
2023-02-18T15:46:38.094Z,97358.02
2023-02-18T15:47:44.363Z,97357.23
2023-02-18T15:48:47.651Z,97356.44
2023-02-18T15:49:49.451Z,97357.03
2023-02-18T15:50:56.897Z,97357.36
2023-02-18T15:51:52.058Z,97353.71
2023-02-18T15:52:54.095Z,97359.16
2023-02-18T15:53:57.095Z,97355.55
2023-02-18T15:54:56.581Z,97355.09
2023-02-18T15:55:55.272Z,97356.93
2023-02-18T15:56:57.209Z,97353.71
2023-02-18T15:57:56.095Z,97355.16
2023-02-18T16:04:13.333Z,97356.12
2023-02-18T16:05:14.572Z,97356.09
2023-02-18T16:08:29.035Z,97357.31
2023-02-18T16:09:27.477Z,97356.95
2023-02-18T16:11:32.630Z,97359.77
2023-02-18T16:12:32.746Z,97360.23
2023-02-18T16:13:31.828Z,97363.13
2023-02-18T16:14:40.541Z,97360.55
2023-02-18T16:15:39.535Z,97360.82
2023-02-18T16:16:37.799Z,97361.2
2023-02-18T16:17:37.481Z,97359.8
2023-02-18T16:18:40.558Z,97361.53
2023-02-18T16:20:39.035Z,97366.05
2023-02-18T16:21:45.188Z,97365.68
2023-02-18T16:22:50.690Z,97366.8
2023-02-18T16:25:49.745Z,97371.09
2023-02-18T16:26:51.978Z,97373.72
2023-02-18T16:28:54.049Z,97374.31
2023-02-18T16:29:57.991Z,97370.58
2023-02-18T16:30:55.686Z,97376.59
2023-02-18T16:31:55.894Z,97370.73
2023-02-18T16:32:56.837Z,97371.19
2023-02-18T16:33:56.801Z,97375.61
2023-02-18T16:34:56.952Z,97374.96
2023-02-18T16:35:57.256Z,97374.11
2023-02-18T16:36:57.682Z,97372.18
2023-02-18T16:37:59.011Z,97374.83
2023-02-18T16:38:58.730Z,97377
2023-02-18T16:39:58.703Z,97374.08
2023-02-18T16:40:59.041Z,97378.23
2023-02-18T16:41:59.453Z,97374.97
2023-02-18T16:44:02.210Z,97378.02
2023-02-18T16:45:02.747Z,97373.49
2023-02-18T16:47:04.095Z,97379.37
2023-02-18T16:48:05.121Z,97375.92
2023-02-18T16:49:04.204Z,97373.85
2023-02-18T16:50:05.540Z,97376.64
2023-02-18T16:52:08.773Z,97374.47
2023-02-18T16:53:07.510Z,97377.62
2023-02-18T16:54:11.010Z,97375.46
2023-02-18T16:56:20.634Z,97379.78
2023-02-18T16:57:13.192Z,97380.11
2023-02-18T16:58:13.374Z,97383.16
2023-02-18T16:59:14.410Z,97382.23
2023-02-18T17:00:16.170Z,97381.09
2023-02-18T17:02:21.337Z,97385.61
2023-02-18T17:03:19.730Z,97385.19
2023-02-18T17:04:19.818Z,97389.12